sensor_id;sensor_type;location;lat;lon;timestamp;pressure;altitude;pressure_sealevel;temperature;humidity
65718;BME280;52445;52.466;-1.016;2022-07-05T00:01:15;100875.16;;;13.66;57.96
65718;BME280;52445;52.466;-1.016;2022-07-05T00:03:41;100876.06;;;13.64;59.26
65718;BME280;52445;52.466;-1.016;2022-07-05T00:06:08;100870.84;;;13.60;59.27
65718;BME280;52445;52.466;-1.016;2022-07-05T00:08:35;100869.13;;;13.56;59.47
65718;BME280;52445;52.466;-1.016;2022-07-05T00:11:02;100865.63;;;13.54;58.18
65718;BME280;52445;52.466;-1.016;2022-07-05T00:13:29;100870.84;;;13.51;58.28
65718;BME280;52445;52.466;-1.016;2022-07-05T00:15:55;100863.03;;;13.45;58.77
65718;BME280;52445;52.466;-1.016;2022-07-05T00:18:22;100866.50;;;13.41;59.46
65718;BME280;52445;52.466;-1.016;2022-07-05T00:20:48;100863.91;;;13.37;58.83
65718;BME280;52445;52.466;-1.016;2022-07-05T00:23:15;100866.50;;;13.31;58.77
65718;BME280;52445;52.466;-1.016;2022-07-05T00:25:42;100860.44;;;13.26;58.50
65718;BME280;52445;52.466;-1.016;2022-07-05T00:28:08;100864.78;;;13.22;59.14
65718;BME280;52445;52.466;-1.016;2022-07-05T00:30:37;100870.00;;;13.18;58.98
65718;BME280;52445;52.466;-1.016;2022-07-05T00:33:04;100877.78;;;13.15;59.24
65718;BME280;52445;52.466;-1.016;2022-07-05T00:35:30;100871.72;;;13.11;58.88
65718;BME280;52445;52.466;-1.016;2022-07-05T00:37:57;100868.25;;;13.07;59.88
65718;BME280;52445;52.466;-1.016;2022-07-05T00:40:24;100867.41;;;13.05;59.33
65718;BME280;52445;52.466;-1.016;2022-07-05T00:42:50;100867.41;;;13.02;59.46
65718;BME280;52445;52.466;-1.016;2022-07-05T00:45:17;100874.31;;;13.00;59.23
65718;BME280;52445;52.466;-1.016;2022-07-05T00:47:44;100866.50;;;12.98;60.38
65718;BME280;52445;52.466;-1.016;2022-07-05T00:50:11;100867.38;;;12.96;59.05
65718;BME280;52445;52.466;-1.016;2022-07-05T00:52:38;100876.06;;;12.95;58.96
65718;BME280;52445;52.466;-1.016;2022-07-05T00:55:05;100870.84;;;12.92;59.69
65718;BME280;52445;52.466;-1.016;2022-07-05T00:57:33;100868.25;;;12.90;60.17
65718;BME280;52445;52.466;-1.016;2022-07-05T00:59:59;100867.38;;;12.87;59.98
65718;BME280;52445;52.466;-1.016;2022-07-05T01:02:26;100862.16;;;12.80;59.24
65718;BME280;52445;52.466;-1.016;2022-07-05T01:04:53;100860.44;;;12.79;60.80
65718;BME280;52445;52.466;-1.016;2022-07-05T01:07:22;100862.16;;;12.77;59.50
65718;BME280;52445;52.466;-1.016;2022-07-05T01:09:49;100865.63;;;12.76;60.37
65718;BME280;52445;52.466;-1.016;2022-07-05T01:12:17;100858.69;;;12.73;60.21
65718;BME280;52445;52.466;-1.016;2022-07-05T01:14:44;100862.16;;;12.71;60.19
65718;BME280;52445;52.466;-1.016;2022-07-05T01:17:13;100873.44;;;12.70;60.87
65718;BME280;52445;52.466;-1.016;2022-07-05T01:19:40;100869.06;;;12.67;59.58
65718;BME280;52445;52.466;-1.016;2022-07-05T01:22:15;100867.34;;;12.65;60.64
65718;BME280;52445;52.466;-1.016;2022-07-05T01:24:42;100878.63;;;12.64;59.65
65718;BME280;52445;52.466;-1.016;2022-07-05T01:27:10;100874.28;;;12.63;60.92
65718;BME280;52445;52.466;-1.016;2022-07-05T01:29:37;100869.94;;;12.62;59.85
65718;BME280;52445;52.466;-1.016;2022-07-05T01:32:04;100869.97;;;12.60;60.08
65718;BME280;52445;52.466;-1.016;2022-07-05T01:34:31;100876.00;;;12.57;60.26
65718;BME280;52445;52.466;-1.016;2022-07-05T01:36:57;100870.81;;;12.54;60.85
65718;BME280;52445;52.466;-1.016;2022-07-05T01:39:24;100872.50;;;12.49;60.63
65718;BME280;52445;52.466;-1.016;2022-07-05T01:41:50;100873.38;;;12.46;60.69
65718;BME280;52445;52.466;-1.016;2022-07-05T01:44:17;100873.38;;;12.45;59.92
65718;BME280;52445;52.466;-1.016;2022-07-05T01:46:44;100877.72;;;12.43;60.86
65718;BME280;52445;52.466;-1.016;2022-07-05T01:49:13;100869.03;;;12.41;60.09
65718;BME280;52445;52.466;-1.016;2022-07-05T01:51:54;100881.13;;;12.32;60.50
65718;BME280;52445;52.466;-1.016;2022-07-05T01:54:21;100876.81;;;12.31;60.48
65718;BME280;52445;52.466;-1.016;2022-07-05T01:56:48;100878.50;;;12.29;61.59
65718;BME280;52445;52.466;-1.016;2022-07-05T01:59:14;100872.47;;;12.27;61.38
65718;BME280;52445;52.466;-1.016;2022-07-05T02:01:41;100873.31;;;12.26;61.39
65718;BME280;52445;52.466;-1.016;2022-07-05T02:04:10;100871.56;;;12.25;60.81
65718;BME280;52445;52.466;-1.016;2022-07-05T02:06:37;100874.16;;;12.22;61.25
65718;BME280;52445;52.466;-1.016;2022-07-05T02:09:05;100868.13;;;12.21;60.39
65718;BME280;52445;52.466;-1.016;2022-07-05T02:11:33;100865.50;;;12.17;61.57
65718;BME280;52445;52.466;-1.016;2022-07-05T02:14:01;100862.88;;;12.12;61.37
65718;BME280;52445;52.466;-1.016;2022-07-05T02:16:28;100860.28;;;12.07;61.48
65718;BME280;52445;52.466;-1.016;2022-07-05T02:18:56;100861.06;;;12.03;61.33
65718;BME280;52445;52.466;-1.016;2022-07-05T02:21:22;100861.91;;;11.99;61.96
65718;BME280;52445;52.466;-1.016;2022-07-05T02:23:49;100858.47;;;11.97;61.30
65718;BME280;52445;52.466;-1.016;2022-07-05T02:26:16;100861.91;;;11.96;61.77
65718;BME280;52445;52.466;-1.016;2022-07-05T02:28:43;100862.75;;;11.95;62.20
65718;BME280;52445;52.466;-1.016;2022-07-05T02:31:10;100867.09;;;11.93;62.38
65718;BME280;52445;52.466;-1.016;2022-07-05T02:33:36;100861.00;;;11.91;61.89
65718;BME280;52445;52.466;-1.016;2022-07-05T02:36:07;100860.16;;;11.89;62.47
65718;BME280;52445;52.466;-1.016;2022-07-05T02:38:35;100861.00;;;11.85;62.43
65718;BME280;52445;52.466;-1.016;2022-07-05T02:41:11;100861.84;;;11.80;62.16
65718;BME280;52445;52.466;-1.016;2022-07-05T02:43:38;100865.28;;;11.81;62.78
65718;BME280;52445;52.466;-1.016;2022-07-05T02:46:07;100858.38;;;11.80;62.44
65718;BME280;52445;52.466;-1.016;2022-07-05T02:48:36;100853.16;;;11.78;62.24
65718;BME280;52445;52.466;-1.016;2022-07-05T02:51:03;100863.53;;;11.77;62.82
65718;BME280;52445;52.466;-1.016;2022-07-05T02:53:31;100864.41;;;11.74;62.06
65718;BME280;52445;52.466;-1.016;2022-07-05T02:55:57;100862.66;;;11.73;63.19
65718;BME280;52445;52.466;-1.016;2022-07-05T02:58:24;100861.78;;;11.71;62.26
65718;BME280;52445;52.466;-1.016;2022-07-05T03:00:50;100862.63;;;11.68;62.95
65718;BME280;52445;52.466;-1.016;2022-07-05T03:03:17;100857.44;;;11.67;62.81
65718;BME280;52445;52.466;-1.016;2022-07-05T03:05:44;100864.34;;;11.66;62.74
65718;BME280;52445;52.466;-1.016;2022-07-05T03:08:10;100862.59;;;11.65;62.64
65718;BME280;52445;52.466;-1.016;2022-07-05T03:10:37;100858.28;;;11.64;63.42
65718;BME280;52445;52.466;-1.016;2022-07-05T03:13:05;100861.75;;;11.65;63.39
65718;BME280;52445;52.466;-1.016;2022-07-05T03:15:32;100864.34;;;11.65;63.68
65718;BME280;52445;52.466;-1.016;2022-07-05T03:17:59;100860.03;;;11.67;62.81
65718;BME280;52445;52.466;-1.016;2022-07-05T03:20:25;100866.94;;;11.68;62.86
65718;BME280;52445;52.466;-1.016;2022-07-05T03:22:52;100864.38;;;11.71;63.71
65718;BME280;52445;52.466;-1.016;2022-07-05T03:25:19;100870.44;;;11.73;63.36
65718;BME280;52445;52.466;-1.016;2022-07-05T03:27:45;100877.38;;;11.76;63.70
65718;BME280;52445;52.466;-1.016;2022-07-05T03:30:13;100873.94;;;11.81;63.03
65718;BME280;52445;52.466;-1.016;2022-07-05T03:32:39;100871.38;;;11.86;63.84
65718;BME280;52445;52.466;-1.016;2022-07-05T03:35:06;100876.56;;;11.89;63.04
65718;BME280;52445;52.466;-1.016;2022-07-05T03:37:33;100874.88;;;11.93;63.52
65718;BME280;52445;52.466;-1.016;2022-07-05T03:40:00;100881.81;;;11.95;64.21
65718;BME280;52445;52.466;-1.016;2022-07-05T03:42:27;100881.84;;;11.99;64.00
65718;BME280;52445;52.466;-1.016;2022-07-05T03:44:53;100882.69;;;12.02;63.34
65718;BME280;52445;52.466;-1.016;2022-07-05T03:47:20;100881.88;;;12.06;63.75
65718;BME280;52445;52.466;-1.016;2022-07-05T03:49:47;100883.63;;;12.11;64.46
65718;BME280;52445;52.466;-1.016;2022-07-05T03:52:14;100881.94;;;12.14;64.11
65718;BME280;52445;52.466;-1.016;2022-07-05T03:54:41;100880.19;;;12.18;63.49
65718;BME280;52445;52.466;-1.016;2022-07-05T03:57:11;100879.34;;;12.22;63.91
65718;BME280;52445;52.466;-1.016;2022-07-05T03:59:38;100879.38;;;12.25;64.34
65718;BME280;52445;52.466;-1.016;2022-07-05T04:02:05;100875.06;;;12.29;63.85
65718;BME280;52445;52.466;-1.016;2022-07-05T04:04:32;100877.66;;;12.33;63.50
65718;BME280;52445;52.466;-1.016;2022-07-05T04:06:59;100882.00;;;12.36;64.34
65718;BME280;52445;52.466;-1.016;2022-07-05T04:09:25;100893.25;;;12.37;63.40
65718;BME280;52445;52.466;-1.016;2022-07-05T04:11:52;100888.06;;;12.37;63.80
65718;BME280;52445;52.466;-1.016;2022-07-05T04:14:18;100891.56;;;12.39;63.50
65718;BME280;52445;52.466;-1.016;2022-07-05T04:16:45;100892.38;;;12.36;63.08
65718;BME280;52445;52.466;-1.016;2022-07-05T04:19:12;100889.78;;;12.34;63.90
65718;BME280;52445;52.466;-1.016;2022-07-05T04:21:39;100885.44;;;12.32;63.77
65718;BME280;52445;52.466;-1.016;2022-07-05T04:24:05;100884.59;;;12.30;64.51
65718;BME280;52445;52.466;-1.016;2022-07-05T04:26:32;100887.19;;;12.28;64.28
65718;BME280;52445;52.466;-1.016;2022-07-05T04:28:59;100886.28;;;12.26;63.85
65718;BME280;52445;52.466;-1.016;2022-07-05T04:31:25;100888.88;;;12.25;63.77
65718;BME280;52445;52.466;-1.016;2022-07-05T04:33:52;100891.50;;;12.23;63.34
65718;BME280;52445;52.466;-1.016;2022-07-05T04:36:19;100895.81;;;12.23;64.33
65718;BME280;52445;52.466;-1.016;2022-07-05T04:38:45;100890.63;;;12.23;63.53
65718;BME280;52445;52.466;-1.016;2022-07-05T04:41:12;100897.53;;;12.20;63.04
65718;BME280;52445;52.466;-1.016;2022-07-05T04:43:39;100900.09;;;12.19;63.82
65718;BME280;52445;52.466;-1.016;2022-07-05T04:46:05;100900.97;;;12.16;63.29
65718;BME280;52445;52.466;-1.016;2022-07-05T04:48:32;100896.66;;;12.20;64.06
65718;BME280;52445;52.466;-1.016;2022-07-05T04:50:58;100903.63;;;12.24;63.88
65718;BME280;52445;52.466;-1.016;2022-07-05T04:53:25;100908.81;;;12.27;64.96
65718;BME280;52445;52.466;-1.016;2022-07-05T04:55:52;100902.78;;;12.30;63.56
65718;BME280;52445;52.466;-1.016;2022-07-05T04:58:18;100908.84;;;12.37;64.73
65718;BME280;52445;52.466;-1.016;2022-07-05T05:00:45;100904.53;;;12.45;64.61
65718;BME280;52445;52.466;-1.016;2022-07-05T05:03:12;100912.34;;;12.56;64.02
65718;BME280;52445;52.466;-1.016;2022-07-05T05:05:38;100908.09;;;12.66;64.59
65718;BME280;52445;52.466;-1.016;2022-07-05T05:08:05;100908.94;;;12.77;64.74
65718;BME280;52445;52.466;-1.016;2022-07-05T05:10:32;100910.72;;;12.89;63.91
65718;BME280;52445;52.466;-1.016;2022-07-05T05:12:58;100908.13;;;13.02;64.48
65718;BME280;52445;52.466;-1.016;2022-07-05T05:15:25;100913.34;;;13.13;63.86
65718;BME280;52445;52.466;-1.016;2022-07-05T05:17:52;100915.94;;;13.25;63.95
65718;BME280;52445;52.466;-1.016;2022-07-05T05:20:19;100917.66;;;13.39;64.34
65718;BME280;52445;52.466;-1.016;2022-07-05T05:22:46;100919.44;;;13.54;63.96
65718;BME280;52445;52.466;-1.016;2022-07-05T05:25:13;100920.28;;;13.71;64.40
65718;BME280;52445;52.466;-1.016;2022-07-05T05:27:45;100928.03;;;13.92;64.33
65718;BME280;52445;52.466;-1.016;2022-07-05T05:30:16;100940.16;;;14.11;63.59
65718;BME280;52445;52.466;-1.016;2022-07-05T05:32:43;100934.88;;;14.30;63.89
65718;BME280;52445;52.466;-1.016;2022-07-05T05:35:10;100936.53;;;14.50;63.90
65718;BME280;52445;52.466;-1.016;2022-07-05T05:37:47;100932.94;;;14.67;63.76
65718;BME280;52445;52.466;-1.016;2022-07-05T05:40:15;100939.84;;;14.83;63.21
65718;BME280;52445;52.466;-1.016;2022-07-05T05:42:42;100938.03;;;14.95;62.69
65718;BME280;52445;52.466;-1.016;2022-07-05T05:45:09;100937.09;;;15.07;62.62
65718;BME280;52445;52.466;-1.016;2022-07-05T05:47:54;100931.78;;;15.19;62.45
65718;BME280;52445;52.466;-1.016;2022-07-05T05:50:23;100939.47;;;15.38;62.96
65718;BME280;52445;52.466;-1.016;2022-07-05T05:52:51;100938.41;;;15.58;62.37
65718;BME280;52445;52.466;-1.016;2022-07-05T05:55:18;100937.34;;;15.77;62.01
65718;BME280;52445;52.466;-1.016;2022-07-05T05:57:46;100940.63;;;16.00;61.98
65718;BME280;52445;52.466;-1.016;2022-07-05T06:00:14;100944.81;;;16.16;61.46
65718;BME280;52445;52.466;-1.016;2022-07-05T06:02:42;100948.97;;;16.33;61.78
65718;BME280;52445;52.466;-1.016;2022-07-05T06:05:10;100948.00;;;16.42;61.61
65718;BME280;52445;52.466;-1.016;2022-07-05T06:07:55;100947.09;;;16.44;61.16
65718;BME280;52445;52.466;-1.016;2022-07-05T06:10:23;100953.97;;;16.52;60.92
65718;BME280;52445;52.466;-1.016;2022-07-05T06:12:51;100954.78;;;16.54;59.92
65718;BME280;52445;52.466;-1.016;2022-07-05T06:15:19;100954.78;;;16.55;60.50
65718;BME280;52445;52.466;-1.016;2022-07-05T06:17:47;100966.13;;;16.56;60.30
65718;BME280;52445;52.466;-1.016;2022-07-05T06:20:16;100966.00;;;16.62;60.33
65718;BME280;52445;52.466;-1.016;2022-07-05T06:22:43;100981.63;;;16.68;60.56
65718;BME280;52445;52.466;-1.016;2022-07-05T06:25:11;100974.50;;;16.80;60.11
65718;BME280;52445;52.466;-1.016;2022-07-05T06:30:28;100979.44;;;17.02;60.34
65718;BME280;52445;52.466;-1.016;2022-07-05T06:32:55;100979.28;;;17.14;59.92
65718;BME280;52445;52.466;-1.016;2022-07-05T06:35:22;100979.19;;;17.20;59.20
65718;BME280;52445;52.466;-1.016;2022-07-05T06:40:31;100986.75;;;17.39;58.75
65718;BME280;52445;52.466;-1.016;2022-07-05T06:43:00;100982.16;;;17.54;58.61
65718;BME280;52445;52.466;-1.016;2022-07-05T06:45:27;100985.47;;;17.65;58.68
65718;BME280;52445;52.466;-1.016;2022-07-05T06:47:59;100980.13;;;17.71;58.08
65718;BME280;52445;52.466;-1.016;2022-07-05T06:50:27;100985.34;;;17.71;58.08
65718;BME280;52445;52.466;-1.016;2022-07-05T06:52:54;100981.88;;;17.69;57.36
65718;BME280;52445;52.466;-1.016;2022-07-05T06:55:21;100988.91;;;17.67;57.15
65718;BME280;52445;52.466;-1.016;2022-07-05T06:57:49;100980.16;;;17.68;57.21
65718;BME280;52445;52.466;-1.016;2022-07-05T07:00:40;100978.41;;;17.67;57.46
65718;BME280;52445;52.466;-1.016;2022-07-05T07:03:26;100993.31;;;17.65;57.42
65718;BME280;52445;52.466;-1.016;2022-07-05T07:06:13;100983.66;;;17.67;56.89
65718;BME280;52445;52.466;-1.016;2022-07-05T07:08:40;100987.09;;;17.72;56.82
65718;BME280;52445;52.466;-1.016;2022-07-05T07:11:27;100995.00;;;17.69;56.78
65718;BME280;52445;52.466;-1.016;2022-07-05T07:13:54;100999.38;;;17.67;57.13
65718;BME280;52445;52.466;-1.016;2022-07-05T07:16:20;101001.13;;;17.68;57.21
65718;BME280;52445;52.466;-1.016;2022-07-05T07:18:47;100997.38;;;17.82;57.04
65718;BME280;52445;52.466;-1.016;2022-07-05T07:21:34;101013.53;;;18.07;57.06
65718;BME280;52445;52.466;-1.016;2022-07-05T07:24:01;101009.03;;;18.16;56.68
65718;BME280;52445;52.466;-1.016;2022-07-05T07:26:28;101015.19;;;18.13;56.40
65718;BME280;52445;52.466;-1.016;2022-07-05T07:28:54;101021.34;;;18.12;56.31
65718;BME280;52445;52.466;-1.016;2022-07-05T07:31:21;101027.50;;;18.11;56.50
65718;BME280;52445;52.466;-1.016;2022-07-05T07:33:48;101031.59;;;18.24;55.99
65718;BME280;52445;52.466;-1.016;2022-07-05T07:36:14;101026.16;;;18.35;55.88
65718;BME280;52445;52.466;-1.016;2022-07-05T07:38:41;101031.19;;;18.46;55.57
65718;BME280;52445;52.466;-1.016;2022-07-05T07:41:08;101038.03;;;18.54;55.33
65718;BME280;52445;52.466;-1.016;2022-07-05T07:43:35;101034.31;;;18.64;55.21
65718;BME280;52445;52.466;-1.016;2022-07-05T07:46:02;101038.53;;;18.71;55.43
65718;BME280;52445;52.466;-1.016;2022-07-05T07:48:29;101045.81;;;18.99;55.17
65718;BME280;52445;52.466;-1.016;2022-07-05T07:50:56;101043.91;;;19.47;55.10
65718;BME280;52445;52.466;-1.016;2022-07-05T07:53:23;101042.78;;;19.93;54.40
65718;BME280;52445;52.466;-1.016;2022-07-05T07:55:49;101036.97;;;20.46;53.58
65718;BME280;52445;52.466;-1.016;2022-07-05T08:00:42;101045.31;;;20.94;51.55
65718;BME280;52445;52.466;-1.016;2022-07-05T08:03:09;101059.31;;;20.95;50.88
65718;BME280;52445;52.466;-1.016;2022-07-05T08:05:36;101047.56;;;21.06;49.81
65718;BME280;52445;52.466;-1.016;2022-07-05T08:08:03;101045.16;;;21.27;49.59
65718;BME280;52445;52.466;-1.016;2022-07-05T08:10:32;101042.16;;;21.38;48.32
65718;BME280;52445;52.466;-1.016;2022-07-05T08:12:59;101046.19;;;21.50;49.15
65718;BME280;52445;52.466;-1.016;2022-07-05T08:15:25;101051.13;;;21.60;47.87
65718;BME280;52445;52.466;-1.016;2022-07-05T08:17:52;101055.19;;;21.43;47.42
65718;BME280;52445;52.466;-1.016;2022-07-05T08:20:38;101049.94;;;21.14;47.23
65718;BME280;52445;52.466;-1.016;2022-07-05T08:23:25;101056.69;;;20.95;47.37
65718;BME280;52445;52.466;-1.016;2022-07-05T08:25:57;101056.38;;;20.74;47.58
65718;BME280;52445;52.466;-1.016;2022-07-05T08:28:24;101053.28;;;20.59;47.73
65718;BME280;52445;52.466;-1.016;2022-07-05T08:30:52;101056.41;;;20.42;47.55
65718;BME280;52445;52.466;-1.016;2022-07-05T08:33:19;101060.19;;;20.32;48.41
65718;BME280;52445;52.466;-1.016;2022-07-05T08:35:46;101057.69;;;20.27;47.74
65718;BME280;52445;52.466;-1.016;2022-07-05T08:38:12;101059.41;;;20.28;48.75
65718;BME280;52445;52.466;-1.016;2022-07-05T08:40:44;101054.09;;;20.29;47.38
65718;BME280;52445;52.466;-1.016;2022-07-05T08:43:13;101051.22;;;20.39;47.81
65718;BME280;52445;52.466;-1.016;2022-07-05T08:45:43;101055.88;;;20.61;48.64
65718;BME280;52445;52.466;-1.016;2022-07-05T08:48:10;101053.59;;;20.78;48.01
65718;BME280;52445;52.466;-1.016;2022-07-05T08:50:39;101049.66;;;20.95;47.45
65718;BME280;52445;52.466;-1.016;2022-07-05T08:53:06;101049.56;;;20.98;47.11
65718;BME280;52445;52.466;-1.016;2022-07-05T08:55:33;101053.00;;;21.00;47.31
65718;BME280;52445;52.466;-1.016;2022-07-05T08:58:00;101046.78;;;21.03;46.94
65718;BME280;52445;52.466;-1.016;2022-07-05T09:00:28;101056.34;;;21.05;47.15
65718;BME280;52445;52.466;-1.016;2022-07-05T09:03:03;101057.16;;;21.08;47.05
65718;BME280;52445;52.466;-1.016;2022-07-05T09:05:35;101058.09;;;21.06;47.18
65718;BME280;52445;52.466;-1.016;2022-07-05T09:08:09;101054.63;;;21.04;47.10
65718;BME280;52445;52.466;-1.016;2022-07-05T09:10:37;101054.72;;;21.01;46.41
65718;BME280;52445;52.466;-1.016;2022-07-05T09:13:04;101053.78;;;21.04;46.69
65718;BME280;52445;52.466;-1.016;2022-07-05T09:15:31;101052.53;;;21.16;46.91
65718;BME280;52445;52.466;-1.016;2022-07-05T09:17:57;101061.09;;;21.23;46.69
65718;BME280;52445;52.466;-1.016;2022-07-05T09:20:26;101062.78;;;21.25;46.17
65718;BME280;52445;52.466;-1.016;2022-07-05T09:22:54;101064.38;;;21.31;46.39
65718;BME280;52445;52.466;-1.016;2022-07-05T09:28:03;101068.47;;;21.67;46.36
65718;BME280;52445;52.466;-1.016;2022-07-05T09:33:10;101064.56;;;21.80;45.48
65718;BME280;52445;52.466;-1.016;2022-07-05T09:35:38;101071.75;;;21.75;45.59
65718;BME280;52445;52.466;-1.016;2022-07-05T09:38:16;101071.75;;;21.75;45.44
65718;BME280;52445;52.466;-1.016;2022-07-05T09:40:46;101080.88;;;21.92;45.81
65718;BME280;52445;52.466;-1.016;2022-07-05T09:43:16;101083.84;;;22.08;45.66
65718;BME280;52445;52.466;-1.016;2022-07-05T09:48:35;101076.84;;;22.32;45.54
65718;BME280;52445;52.466;-1.016;2022-07-05T09:51:11;101072.13;;;22.41;45.32
65718;BME280;52445;52.466;-1.016;2022-07-05T09:53:59;101081.34;;;22.54;45.11
65718;BME280;52445;52.466;-1.016;2022-07-05T09:56:43;101089.28;;;22.54;44.57
65718;BME280;52445;52.466;-1.016;2022-07-05T09:59:12;101083.22;;;22.51;44.60
65718;BME280;52445;52.466;-1.016;2022-07-05T10:01:39;101086.31;;;22.38;44.62
65718;BME280;52445;52.466;-1.016;2022-07-05T10:04:08;101086.00;;;22.22;44.48
65718;BME280;52445;52.466;-1.016;2022-07-05T10:06:35;101083.09;;;22.04;45.11
65718;BME280;52445;52.466;-1.016;2022-07-05T10:09:01;101086.84;;;21.97;45.49
65718;BME280;52445;52.466;-1.016;2022-07-05T10:11:28;101088.38;;;22.04;45.48
65718;BME280;52445;52.466;-1.016;2022-07-05T10:13:58;101082.88;;;22.11;45.82
65718;BME280;52445;52.466;-1.016;2022-07-05T10:16:24;101084.72;;;22.08;45.52
65718;BME280;52445;52.466;-1.016;2022-07-05T10:18:55;101092.94;;;21.99;45.06
65718;BME280;52445;52.466;-1.016;2022-07-05T10:21:25;101086.09;;;21.93;45.89
65718;BME280;52445;52.466;-1.016;2022-07-05T10:23:53;101092.28;;;21.92;45.92
65718;BME280;52445;52.466;-1.016;2022-07-05T10:26:22;101084.91;;;22.02;46.26
65718;BME280;52445;52.466;-1.016;2022-07-05T10:28:51;101085.28;;;22.17;45.72
65718;BME280;52445;52.466;-1.016;2022-07-05T10:31:27;101089.00;;;22.11;45.09
65718;BME280;52445;52.466;-1.016;2022-07-05T10:33:56;101086.31;;;22.13;45.16
65718;BME280;52445;52.466;-1.016;2022-07-05T10:36:23;101085.16;;;22.21;46.24
65718;BME280;52445;52.466;-1.016;2022-07-05T10:38:50;101087.25;;;22.37;45.92
65718;BME280;52445;52.466;-1.016;2022-07-05T10:41:22;101084.88;;;22.53;46.06
65718;BME280;52445;52.466;-1.016;2022-07-05T10:43:55;101075.53;;;22.70;45.61
65718;BME280;52445;52.466;-1.016;2022-07-05T10:46:38;101082.06;;;22.83;44.77
65718;BME280;52445;52.466;-1.016;2022-07-05T10:49:11;101085.41;;;22.89;44.95
65718;BME280;52445;52.466;-1.016;2022-07-05T10:51:39;101081.03;;;22.88;45.57
65718;BME280;52445;52.466;-1.016;2022-07-05T10:54:06;101084.41;;;22.91;44.95
65718;BME280;52445;52.466;-1.016;2022-07-05T10:56:33;101085.22;;;22.93;45.37
65718;BME280;52445;52.466;-1.016;2022-07-05T10:59:06;101097.56;;;22.93;45.22
65718;BME280;52445;52.466;-1.016;2022-07-05T11:01:35;101094.00;;;22.94;45.00
65718;BME280;52445;52.466;-1.016;2022-07-05T11:06:42;101091.69;;;23.08;43.37
65718;BME280;52445;52.466;-1.016;2022-07-05T11:22:35;101104.69;;;22.91;46.24
65718;BME280;52445;52.466;-1.016;2022-07-05T11:25:03;101101.88;;;22.95;45.22
65718;BME280;52445;52.466;-1.016;2022-07-05T11:27:30;101112.03;;;23.06;45.07
65718;BME280;52445;52.466;-1.016;2022-07-05T11:29:58;101115.16;;;23.16;44.98
65718;BME280;52445;52.466;-1.016;2022-07-05T11:35:14;101117.38;;;23.27;45.07
65718;BME280;52445;52.466;-1.016;2022-07-05T11:37:59;101108.75;;;23.46;45.72
65718;BME280;52445;52.466;-1.016;2022-07-05T11:40:46;101117.31;;;23.75;45.89
65718;BME280;52445;52.466;-1.016;2022-07-05T11:43:13;101111.50;;;23.87;45.09
65718;BME280;52445;52.466;-1.016;2022-07-05T11:45:40;101111.25;;;23.94;44.98
65718;BME280;52445;52.466;-1.016;2022-07-05T11:48:14;101118.53;;;24.09;44.95
65718;BME280;52445;52.466;-1.016;2022-07-05T11:50:41;101118.97;;;24.21;44.51
65718;BME280;52445;52.466;-1.016;2022-07-05T11:53:08;101122.63;;;24.17;44.27
65718;BME280;52445;52.466;-1.016;2022-07-05T11:55:38;101121.72;;;24.18;44.23
65718;BME280;52445;52.466;-1.016;2022-07-05T11:58:08;101125.16;;;24.20;44.64
65718;BME280;52445;52.466;-1.016;2022-07-05T12:00:37;101119.03;;;24.19;44.12
65718;BME280;52445;52.466;-1.016;2022-07-05T12:03:12;101118.72;;;24.05;43.90
65718;BME280;52445;52.466;-1.016;2022-07-05T12:05:39;101120.22;;;23.90;44.26
65718;BME280;52445;52.466;-1.016;2022-07-05T12:08:08;101112.78;;;23.77;45.12
65718;BME280;52445;52.466;-1.016;2022-07-05T12:10:36;101112.00;;;23.75;44.50
65718;BME280;52445;52.466;-1.016;2022-07-05T12:13:43;101097.97;;;23.73;45.18
65718;BME280;52445;52.466;-1.016;2022-07-05T12:16:11;101099.63;;;23.75;45.16
65718;BME280;52445;52.466;-1.016;2022-07-05T12:18:59;101093.16;;;23.83;45.55
65718;BME280;52445;52.466;-1.016;2022-07-05T12:21:27;101091.66;;;23.98;45.77
65718;BME280;52445;52.466;-1.016;2022-07-05T12:23:54;101084.13;;;24.09;46.16
65718;BME280;52445;52.466;-1.016;2022-07-05T12:26:22;101084.00;;;24.12;45.28
65718;BME280;52445;52.466;-1.016;2022-07-05T12:28:52;101083.19;;;24.31;45.90
65718;BME280;52445;52.466;-1.016;2022-07-05T12:31:20;101088.63;;;24.49;45.81
65718;BME280;52445;52.466;-1.016;2022-07-05T12:33:48;101089.13;;;24.57;44.94
65718;BME280;52445;52.466;-1.016;2022-07-05T12:36:18;101090.13;;;24.74;45.78
65718;BME280;52445;52.466;-1.016;2022-07-05T12:38:45;101083.44;;;24.86;44.70
65718;BME280;52445;52.466;-1.016;2022-07-05T12:41:21;101084.44;;;24.83;44.26
65718;BME280;52445;52.466;-1.016;2022-07-05T12:43:50;101086.72;;;24.72;44.28
65718;BME280;52445;52.466;-1.016;2022-07-05T12:46:17;101079.41;;;24.58;44.43
65718;BME280;52445;52.466;-1.016;2022-07-05T12:48:44;101085.97;;;24.49;44.88
65718;BME280;52445;52.466;-1.016;2022-07-05T12:51:31;101091.72;;;24.59;44.85
65718;BME280;52445;52.466;-1.016;2022-07-05T12:53:59;101091.56;;;24.62;44.76
65718;BME280;52445;52.466;-1.016;2022-07-05T12:56:47;101091.41;;;24.65;45.11
65718;BME280;52445;52.466;-1.016;2022-07-05T13:00:00;101088.75;;;24.86;44.73
65718;BME280;52445;52.466;-1.016;2022-07-05T13:05:21;101093.59;;;25.14;44.41
65718;BME280;52445;52.466;-1.016;2022-07-05T13:07:49;101089.75;;;25.02;43.80
65718;BME280;52445;52.466;-1.016;2022-07-05T13:12:57;101102.28;;;24.59;43.87
65718;BME280;52445;52.466;-1.016;2022-07-05T13:15:24;101098.69;;;24.41;44.52
65718;BME280;52445;52.466;-1.016;2022-07-05T13:17:51;101100.53;;;24.38;44.50
65718;BME280;52445;52.466;-1.016;2022-07-05T13:20:19;101105.81;;;24.38;44.70
65718;BME280;52445;52.466;-1.016;2022-07-05T13:22:47;101095.66;;;24.29;44.42
65718;BME280;52445;52.466;-1.016;2022-07-05T13:25:14;101092.50;;;24.21;43.85
65718;BME280;52445;52.466;-1.016;2022-07-05T13:27:41;101091.88;;;24.14;44.22
65718;BME280;52445;52.466;-1.016;2022-07-05T13:30:08;101097.78;;;24.21;44.88